createdAt,value
2023-05-05T00:00:00.451Z,101333.95
2023-05-05T00:03:48.026Z,101337.72
2023-05-05T00:07:15.077Z,101331.80
2023-05-05T00:10:42.925Z,101324.95
2023-05-05T00:14:12.222Z,101329.95
2023-05-05T00:17:45.325Z,101330.14
2023-05-05T00:21:12.980Z,101327.87
2023-05-05T00:24:40.127Z,101335.02
2023-05-05T00:28:07.200Z,101345.44
2023-05-05T00:31:33.871Z,101348.57
2023-05-05T00:35:00.964Z,101361.00
2023-05-05T00:38:28.954Z,101357.98
2023-05-05T00:41:55.619Z,101360.64
2023-05-05T00:45:23.100Z,101355.18
2023-05-05T00:48:50.328Z,101354.88
2023-05-05T00:52:17.234Z,101352.17
2023-05-05T00:55:46.771Z,101344.19
2023-05-05T00:59:15.725Z,101343.84
2023-05-05T01:02:43.352Z,101341.66
2023-05-05T01:06:23.065Z,101344.33
2023-05-05T01:10:18.099Z,101347.70
2023-05-05T01:13:55.151Z,101351.94
2023-05-05T01:17:26.265Z,101355.40
2023-05-05T01:21:00.904Z,101352.31
2023-05-05T01:24:47.807Z,101348.23
2023-05-05T01:28:40.616Z,101350.30
2023-05-05T01:32:12.553Z,101350.88
2023-05-05T01:35:48.110Z,101352.33
2023-05-05T01:39:23.359Z,101355.36
2023-05-05T01:42:52.501Z,101346.27
2023-05-05T01:46:21.334Z,101346.30
2023-05-05T01:49:50.478Z,101350.04
2023-05-05T01:53:19.468Z,101344.42
2023-05-05T01:56:47.833Z,101349.18
2023-05-05T02:00:19.083Z,101346.64
2023-05-05T02:03:47.746Z,101348.58
2023-05-05T02:07:17.173Z,101351.02
2023-05-05T02:10:46.316Z,101357.42
2023-05-05T02:14:14.476Z,101353.70
2023-05-05T02:17:44.735Z,101350.02
2023-05-05T02:21:11.907Z,101352.42
2023-05-05T02:24:39.587Z,101349.14
2023-05-05T02:28:12.660Z,101347.46
2023-05-05T02:31:45.548Z,101349.54
2023-05-05T02:35:18.725Z,101340.30
2023-05-05T02:38:48.137Z,101345.14
2023-05-05T02:42:21.237Z,101341.23
2023-05-05T02:45:49.255Z,101338.64
2023-05-05T02:49:16.721Z,101343.77
2023-05-05T02:52:44.789Z,101340.40
2023-05-05T02:56:25.102Z,101335.44
2023-05-05T03:00:00.001Z,101338.11
2023-05-05T03:03:32.729Z,101336.08
2023-05-05T03:07:08.593Z,101337.84
2023-05-05T03:10:45.601Z,101337.47
2023-05-05T03:14:14.595Z,101337.17
2023-05-05T03:17:44.606Z,101341.80
2023-05-05T03:21:13.242Z,101342.30
2023-05-05T03:24:44.682Z,101345.34
2023-05-05T03:28:12.216Z,101344.13
2023-05-05T03:31:39.192Z,101344.08
2023-05-05T03:35:06.234Z,101345.61
2023-05-05T03:38:33.105Z,101351.00
2023-05-05T03:42:00.302Z,101353.24
2023-05-05T03:45:30.024Z,101356.56
2023-05-05T03:48:58.339Z,101359.46
2023-05-05T03:52:25.803Z,101359.66
2023-05-05T03:55:52.990Z,101360.05
2023-05-05T03:59:20.312Z,101362.70
2023-05-05T04:02:47.342Z,101365.27
2023-05-05T04:06:14.504Z,101363.06
2023-05-05T04:09:44.776Z,101366.67
2023-05-05T04:13:12.361Z,101367.96
2023-05-05T04:16:41.743Z,101368.48
2023-05-05T04:20:11.244Z,101372.50
2023-05-05T04:23:43.131Z,101370.79
2023-05-05T04:27:10.961Z,101370.45
2023-05-05T04:30:38.783Z,101376.08
2023-05-05T04:34:06.447Z,101379.21
2023-05-05T04:37:33.380Z,101388.01
2023-05-05T04:41:00.740Z,101383.94
2023-05-05T04:44:28.389Z,101392.73
2023-05-05T04:47:56.075Z,101399.48
2023-05-05T04:51:24.173Z,101403.60
2023-05-05T04:54:51.699Z,101408.95
2023-05-05T04:58:22.337Z,101412.65
2023-05-05T05:01:49.851Z,101416.72
2023-05-05T05:05:17.425Z,101422.50
2023-05-05T05:08:44.521Z,101428.80
2023-05-05T05:12:12.689Z,101430.02
2023-05-05T05:15:40.883Z,101435.19
2023-05-05T05:19:09.496Z,101437.96
2023-05-05T05:22:38.757Z,101438.84
2023-05-05T05:26:07.109Z,101442.30
2023-05-05T05:29:35.664Z,101443.98
2023-05-05T05:33:02.982Z,101443.73
2023-05-05T05:36:30.000Z,101447.71
2023-05-05T05:39:57.256Z,101445.52
2023-05-05T05:43:24.495Z,101443.52
2023-05-05T05:46:51.317Z,101444.80
2023-05-05T05:50:18.750Z,101448.48
2023-05-05T05:53:45.872Z,101447.48
2023-05-05T05:57:14.574Z,101443.22
2023-05-05T06:00:42.342Z,101438.94
2023-05-05T06:04:09.690Z,101445.00
2023-05-05T06:07:37.887Z,101442.71
2023-05-05T06:11:05.184Z,101445.04
2023-05-05T06:14:31.684Z,101448.64
2023-05-05T06:17:58.975Z,101452.31
2023-05-05T06:21:26.000Z,101455.59
2023-05-05T06:24:52.953Z,101465.42
2023-05-05T06:28:20.529Z,101465.14
2023-05-05T06:31:47.934Z,101465.75
2023-05-05T06:35:14.761Z,101466.30
2023-05-05T06:38:41.616Z,101465.63
2023-05-05T06:42:08.872Z,101467.23
2023-05-05T06:45:36.315Z,101469.18
2023-05-05T06:49:03.917Z,101470.48
2023-05-05T06:52:30.990Z,101472.58
2023-05-05T06:55:58.460Z,101473.95
2023-05-05T06:59:26.541Z,101466.25
2023-05-05T07:02:54.288Z,101467.85
2023-05-05T07:06:22.444Z,101468.05
2023-05-05T07:09:49.417Z,101472.21
2023-05-05T07:13:18.388Z,101473.58
2023-05-05T07:16:45.072Z,101476.77
2023-05-05T07:20:14.688Z,101476.86
2023-05-05T07:23:41.965Z,101479.02
2023-05-05T07:27:09.625Z,101477.66
2023-05-05T07:30:37.053Z,101476.71
2023-05-05T07:34:03.926Z,101472.92
2023-05-05T07:37:33.582Z,101470.31
2023-05-05T07:41:07.012Z,101471.00
2023-05-05T07:44:34.370Z,101474.11
2023-05-05T07:48:01.741Z,101474.80
2023-05-05T07:51:34.394Z,101479.55
2023-05-05T07:55:02.193Z,101482.14
2023-05-05T07:58:29.285Z,101486.20
2023-05-05T08:01:56.716Z,101490.13
2023-05-05T08:05:23.470Z,101493.20
2023-05-05T08:08:51.084Z,101489.05
2023-05-05T08:12:19.419Z,101487.66
2023-05-05T08:15:46.525Z,101491.98
2023-05-05T08:19:27.684Z,101490.21
2023-05-05T08:22:55.967Z,101488.46
2023-05-05T08:26:23.925Z,101493.02
2023-05-05T08:29:51.319Z,101495.33
2023-05-05T08:33:18.780Z,101501.08
2023-05-05T08:36:49.417Z,101501.98
2023-05-05T08:40:17.790Z,101498.92
2023-05-05T08:43:47.654Z,101498.59
2023-05-05T08:47:18.705Z,101496.50
2023-05-05T08:50:51.371Z,101501.14
2023-05-05T08:54:21.695Z,101500.05
2023-05-05T08:57:52.906Z,101502.59
2023-05-05T09:01:20.343Z,101503.35
2023-05-05T09:04:47.585Z,101506.18
2023-05-05T09:08:15.478Z,101508.79
2023-05-05T09:11:43.189Z,101507.84
2023-05-05T09:15:13.006Z,101510.66
2023-05-05T09:18:43.265Z,101512.94
2023-05-05T09:22:10.383Z,101514.27
2023-05-05T09:25:37.762Z,101521.32
2023-05-05T09:29:05.915Z,101522.99
2023-05-05T09:32:47.156Z,101521.34
2023-05-05T09:36:14.131Z,101525.90
2023-05-05T09:39:57.137Z,101522.52
2023-05-05T09:43:31.777Z,101521.84
2023-05-05T09:47:01.651Z,101519.61
2023-05-05T09:50:31.236Z,101520.35
2023-05-05T09:53:58.747Z,101521.05
2023-05-05T09:57:34.412Z,101508.79
2023-05-05T10:01:02.137Z,101512.14
2023-05-05T10:04:30.536Z,101512.61
2023-05-05T10:08:12.822Z,101518.66
2023-05-05T10:11:51.429Z,101519.70
2023-05-05T10:15:21.677Z,101515.31
2023-05-05T10:18:49.445Z,101515.89
2023-05-05T10:22:16.334Z,101513.09
2023-05-05T10:25:52.969Z,101513.45
2023-05-05T10:29:32.076Z,101510.52
2023-05-05T10:33:27.323Z,101508.74
2023-05-05T10:36:55.689Z,101505.84
2023-05-05T10:40:26.048Z,101506.04
2023-05-05T10:43:54.736Z,101503.27
2023-05-05T10:47:23.085Z,101500.00
2023-05-05T10:50:54.453Z,101499.56
2023-05-05T10:54:28.309Z,101495.64
2023-05-05T10:57:56.229Z,101494.20
2023-05-05T11:01:34.217Z,101496.02
2023-05-05T11:05:14.530Z,101481.89
2023-05-05T11:08:43.673Z,101475.41
2023-05-05T11:12:14.053Z,101475.91
2023-05-05T11:15:41.744Z,101477.69
2023-05-05T11:19:48.602Z,101473.49
2023-05-05T11:23:32.216Z,101473.45
2023-05-05T11:26:59.611Z,101468.17
2023-05-05T11:30:26.884Z,101469.34
2023-05-05T11:33:54.229Z,101461.73
2023-05-05T11:37:25.970Z,101458.60
2023-05-05T11:40:55.390Z,101455.80
2023-05-05T11:44:31.579Z,101458.86
2023-05-05T11:48:28.574Z,101456.95
2023-05-05T11:52:01.160Z,101456.09
2023-05-05T11:55:29.129Z,101450.37
2023-05-05T11:59:11.269Z,101451.43
2023-05-05T12:02:38.436Z,101448.27
2023-05-05T12:06:05.521Z,101451.36
2023-05-05T12:09:32.172Z,101451.27
2023-05-05T12:12:59.127Z,101447.77
2023-05-05T12:16:26.015Z,101441.16
2023-05-05T12:19:55.167Z,101437.63
2023-05-05T12:23:21.962Z,101431.41
2023-05-05T12:26:48.714Z,101430.55
2023-05-05T12:30:20.961Z,101430.56
2023-05-05T12:33:49.160Z,101426.12
2023-05-05T12:37:17.166Z,101425.30
2023-05-05T12:40:48.946Z,101415.20
2023-05-05T12:44:16.335Z,101418.45
2023-05-05T12:47:45.641Z,101416.04
2023-05-05T12:51:23.514Z,101425.00
2023-05-05T12:55:01.089Z,101415.44
2023-05-05T12:58:29.374Z,101413.84
2023-05-05T13:01:57.718Z,101407.14
2023-05-05T13:05:36.461Z,101405.52
2023-05-05T13:09:04.049Z,101402.39
2023-05-05T13:12:30.918Z,101404.00
2023-05-05T13:15:57.600Z,101393.67
2023-05-05T13:19:28.410Z,101401.23
2023-05-05T13:22:56.035Z,101396.44
2023-05-05T13:26:22.955Z,101398.12
2023-05-05T13:29:49.920Z,101384.17
2023-05-05T13:33:18.278Z,101387.48
2023-05-05T13:36:45.314Z,101385.19
2023-05-05T13:40:14.716Z,101386.08
2023-05-05T13:43:42.040Z,101383.19
2023-05-05T13:47:10.300Z,101382.69
2023-05-05T13:50:38.155Z,101376.05
2023-05-05T13:54:06.735Z,101376.46
2023-05-05T13:57:34.248Z,101371.71
2023-05-05T14:01:01.628Z,101365.25
2023-05-05T14:04:28.688Z,101365.56
2023-05-05T14:07:56.816Z,101367.87
2023-05-05T14:11:23.683Z,101370.18
2023-05-05T14:14:53.019Z,101371.11
2023-05-05T14:18:21.415Z,101364.88
2023-05-05T14:21:48.186Z,101358.71
2023-05-05T14:25:16.110Z,101362.21
2023-05-05T14:28:43.829Z,101358.13
2023-05-05T14:32:10.973Z,101359.16
2023-05-05T14:35:38.116Z,101364.61
2023-05-05T14:39:05.031Z,101359.18
2023-05-05T14:42:31.918Z,101354.79
2023-05-05T14:46:00.738Z,101356.11
2023-05-05T14:49:27.969Z,101354.02
2023-05-05T14:52:54.822Z,101359.59
2023-05-05T14:56:22.734Z,101355.84
2023-05-05T14:59:52.323Z,101356.83
2023-05-05T15:03:19.474Z,101351.44
2023-05-05T15:06:47.448Z,101352.19
2023-05-05T15:10:15.237Z,101352.64
2023-05-05T15:13:42.139Z,101352.77
2023-05-05T15:17:08.986Z,101355.92
2023-05-05T15:20:35.827Z,101354.25
2023-05-05T15:24:05.100Z,101349.78
2023-05-05T15:27:32.911Z,101352.38
2023-05-05T15:31:02.059Z,101355.48
2023-05-05T15:34:28.963Z,101357.77
2023-05-05T15:37:56.422Z,101355.82
2023-05-05T15:41:23.787Z,101358.48
2023-05-05T15:44:50.909Z,101356.81
2023-05-05T15:48:17.781Z,101355.88
2023-05-05T15:51:46.015Z,101354.45
2023-05-05T15:55:15.700Z,101361.18
2023-05-05T15:58:45.450Z,101364.27
2023-05-05T16:02:13.405Z,101371.51
2023-05-05T16:05:42.295Z,101369.52
2023-05-05T16:09:09.580Z,101363.45
2023-05-05T16:12:41.422Z,101356.50
2023-05-05T16:16:12.620Z,101356.90
2023-05-05T16:19:40.130Z,101358.33
2023-05-05T16:23:08.216Z,101356.66
2023-05-05T16:26:36.133Z,101359.94
2023-05-05T16:30:03.075Z,101359.04
2023-05-05T16:33:32.763Z,101355.42
2023-05-05T16:36:59.997Z,101353.98
2023-05-05T16:40:27.947Z,101353.63
2023-05-05T16:43:57.957Z,101354.80
2023-05-05T16:47:25.502Z,101353.63
2023-05-05T16:50:52.668Z,101360.46
2023-05-05T16:54:25.693Z,101363.59
2023-05-05T16:57:53.134Z,101365.17
2023-05-05T17:01:20.401Z,101370.02
2023-05-05T17:04:47.439Z,101373.67
2023-05-05T17:08:16.878Z,101373.64
2023-05-05T17:11:54.731Z,101370.14
2023-05-05T17:15:26.105Z,101371.80
2023-05-05T17:18:55.416Z,101372.83
2023-05-05T17:22:23.764Z,101371.83
2023-05-05T17:25:54.713Z,101371.48
2023-05-05T17:29:23.530Z,101374.15
2023-05-05T17:32:53.420Z,101380.50
2023-05-05T17:36:24.673Z,101383.89
2023-05-05T17:39:53.104Z,101382.58
2023-05-05T17:43:33.003Z,101382.96
2023-05-05T17:47:22.888Z,101389.86
2023-05-05T17:50:57.016Z,101392.27
2023-05-05T17:54:36.824Z,101393.17
2023-05-05T17:58:14.005Z,101396.80
2023-05-05T18:01:48.866Z,101390.60
2023-05-05T18:05:16.064Z,101390.65
2023-05-05T18:08:48.036Z,101390.31
2023-05-05T18:12:17.647Z,101395.61
2023-05-05T18:15:46.803Z,101393.58
2023-05-05T18:19:21.115Z,101390.66
2023-05-05T18:22:50.650Z,101393.48
2023-05-05T18:26:21.590Z,101396.52
2023-05-05T18:29:48.715Z,101397.81
2023-05-05T18:33:18.700Z,101404.44
2023-05-05T18:36:46.889Z,101406.98
2023-05-05T18:40:19.436Z,101413.76
2023-05-05T18:44:03.431Z,101415.73
2023-05-05T18:47:31.095Z,101412.05
2023-05-05T18:51:04.625Z,101409.92
2023-05-05T18:54:30.921Z,101410.75
2023-05-05T18:57:57.714Z,101422.42
2023-05-05T19:01:24.689Z,101422.98
2023-05-05T19:05:01.170Z,101423.65
2023-05-05T19:08:31.359Z,101422.05
2023-05-05T19:12:00.588Z,101419.98
2023-05-05T19:15:28.334Z,101417.27
2023-05-05T19:18:59.086Z,101420.32
2023-05-05T19:22:27.422Z,101417.48
2023-05-05T19:25:56.748Z,101424.13
2023-05-05T19:29:25.312Z,101426.40
2023-05-05T19:32:58.274Z,101430.14
2023-05-05T19:36:28.015Z,101422.52
2023-05-05T19:40:00.070Z,101423.58
2023-05-05T19:43:36.050Z,101418.36
2023-05-05T19:47:09.048Z,101423.38
2023-05-05T19:50:42.046Z,101421.83
2023-05-05T19:54:11.974Z,101425.98
2023-05-05T19:57:44.919Z,101425.27
2023-05-05T20:01:20.062Z,101422.83
2023-05-05T20:04:51.590Z,101417.59
2023-05-05T20:08:19.700Z,101416.86
2023-05-05T20:11:49.217Z,101410.92
2023-05-05T20:15:20.180Z,101411.37
2023-05-05T20:19:00.147Z,101415.46
2023-05-05T20:22:31.211Z,101414.02
2023-05-05T20:26:04.153Z,101414.48
2023-05-05T20:29:35.308Z,101409.05
2023-05-05T20:33:07.592Z,101412.98
2023-05-05T20:36:37.859Z,101414.52
2023-05-05T20:40:07.854Z,101408.55
2023-05-05T20:43:39.453Z,101406.93
2023-05-05T20:47:10.267Z,101407.34
2023-05-05T20:50:40.433Z,101401.69
2023-05-05T20:54:11.759Z,101398.64
2023-05-05T20:57:42.004Z,101393.73
2023-05-05T21:01:12.594Z,101395.20
2023-05-05T21:08:27.808Z,101402.02
2023-05-05T21:11:56.640Z,101405.02
2023-05-05T21:15:25.649Z,101401.64
2023-05-05T21:18:52.675Z,101397.41
2023-05-05T21:22:20.116Z,101396.59
2023-05-05T21:25:51.424Z,101400.44
2023-05-05T21:29:25.732Z,101401.48
2023-05-05T21:32:53.868Z,101396.65
2023-05-05T21:36:27.900Z,101396.34
2023-05-05T21:40:01.061Z,101399.81
2023-05-05T21:43:29.731Z,101399.66
2023-05-05T21:46:56.965Z,101391.55
2023-05-05T21:50:24.788Z,101395.32
2023-05-05T21:53:52.589Z,101395.34
2023-05-05T21:57:20.849Z,101390.20
2023-05-05T22:00:50.959Z,101389.23
2023-05-05T22:04:21.153Z,101394.80
2023-05-05T22:07:48.839Z,101390.16
2023-05-05T22:11:16.799Z,101391.73
2023-05-05T22:14:44.702Z,101385.17
2023-05-05T22:18:11.591Z,101381.22
2023-05-05T22:21:38.791Z,101377.08
2023-05-05T22:25:06.443Z,101374.85
2023-05-05T22:28:33.706Z,101368.65
2023-05-05T22:32:00.728Z,101366.95
2023-05-05T22:35:28.373Z,101358.34
2023-05-05T22:38:55.994Z,101358.41
2023-05-05T22:42:22.696Z,101353.23
2023-05-05T22:45:49.796Z,101351.36
2023-05-05T22:49:25.773Z,101349.84
2023-05-05T22:52:52.687Z,101345.03
2023-05-05T22:56:20.109Z,101341.80
2023-05-05T22:59:46.861Z,101343.55
2023-05-05T23:03:13.712Z,101349.63
2023-05-05T23:06:42.326Z,101345.86
2023-05-05T23:10:12.912Z,101343.30
2023-05-05T23:13:40.739Z,101347.11
2023-05-05T23:17:07.909Z,101346.64
2023-05-05T23:20:35.306Z,101345.10
2023-05-05T23:24:02.480Z,101342.54
2023-05-05T23:27:29.423Z,101341.67
2023-05-05T23:30:56.576Z,101341.87
2023-05-05T23:34:23.087Z,101349.70
2023-05-05T23:37:51.608Z,101346.27
2023-05-05T23:41:19.228Z,101338.21
2023-05-05T23:44:46.072Z,101338.39
2023-05-05T23:48:14.020Z,101336.31
2023-05-05T23:51:41.138Z,101330.29
2023-05-05T23:55:10.432Z,101333.81
2023-05-05T23:58:40.852Z,101333.29
